Time;durP1;ratioP1;P1;durP2;ratioP2;P2;SDS_P1;SDS_P2;PMS_P1;PMS_P2;Temp;Humidity;BMP_temperature;BMP_pressure;BME280_temperature;BME280_humidity;BME280_pressure;Samples;Min_cycle;Max_cycle;Signal;HPM_P1;HPM_P2
2021/07/20 00:02:09;;;;;;;4.20;1.80;;;17.50;69.70;;;;;;4812597;28;20243;-75
2021/07/20 00:04:31;;;;;;;3.10;1.40;;;;;;;;;;4807158;28;20250;-75
2021/07/20 00:06:55;;;;;;;3.00;1.30;;;17.50;66.80;;;;;;4816578;28;20576;-75
2021/07/20 00:09:18;;;;;;;5.43;2.30;;;;;;;;;;4798401;28;20700;-74
2021/07/20 00:11:41;;;;;;;3.47;1.50;;;;;;;;;;4816713;28;20196;-75
2021/07/20 00:14:04;;;;;;;4.20;1.77;;;;;;;;;;4816684;28;20605;-82
2021/07/20 00:16:26;;;;;;;4.73;2.13;;;;;;;;;;4817870;28;20249;-75
2021/07/20 00:18:49;;;;;;;4.73;2.07;;;;;;;;;;4816365;28;20243;-76
2021/07/20 00:21:12;;;;;;;3.30;1.50;;;;;;;;;;4818143;28;20620;-80
2021/07/20 00:23:36;;;;;;;2.93;1.37;;;17.60;64.50;;;;;;4818358;28;20654;-85
2021/07/20 00:25:59;;;;;;;3.63;1.63;;;;;;;;;;4811753;28;20246;-86
2021/07/20 00:28:22;;;;;;;6.63;2.60;;;17.60;63.10;;;;;;4817583;28;20310;-72
2021/07/20 00:30:45;;;;;;;3.63;1.60;;;;;;;;;;4816420;28;20187;-78
2021/07/20 00:33:08;;;;;;;3.40;1.60;;;;;;;;;;4817611;28;20234;-76
2021/07/20 00:35:31;;;;;;;4.90;2.30;;;;;;;;;;4816513;28;20708;-74
2021/07/20 00:37:54;;;;;;;3.90;1.73;;;;;;;;;;4818258;28;20195;-85
2021/07/20 00:40:19;;;;;;;5.40;2.37;;;17.60;62.10;;;;;;4815589;28;20250;-85
2021/07/20 00:42:44;;;;;;;2.87;1.40;;;;;;;;;;4816529;28;20203;-86
2021/07/20 00:45:10;;;;;;;3.47;1.53;;;17.50;63.10;;;;;;4816415;28;20266;-85
2021/07/20 00:47:33;;;;;;;2.63;1.27;;;;;;;;;;4817499;28;20219;-82
2021/07/20 00:49:56;;;;;;;2.87;1.37;;;;;;;;;;4799565;28;20462;-85
2021/07/20 00:52:19;;;;;;;5.37;2.27;;;;;;;;;;4815669;28;20262;-87
2021/07/20 00:54:43;;;;;;;3.00;1.23;;;;;;;;;;4800989;28;20196;-88
2021/07/20 00:57:08;;;;;;;3.70;1.43;;;17.40;64.20;;;;;;4816289;28;20207;-88
2021/07/20 00:59:35;;;;;;;3.27;1.50;;;;;;;;;;4815573;28;20292;-87
2021/07/20 01:01:58;;;;;;;4.47;2.07;;;;;;;;;;4796021;28;20195;-87
2021/07/20 01:04:21;;;;;;;4.43;1.83;;;;;;;;;;4815505;28;20316;-86
2021/07/20 01:06:45;;;;;;;3.07;1.47;;;;;;;;;;4814932;28;20199;-87
2021/07/20 01:09:11;;;;;;;3.33;1.50;;;;;;;;;;4815966;28;20478;-87
2021/07/20 01:11:37;;;;;;;2.50;1.50;;;;;;;;;;4816944;28;20652;-88
2021/07/20 01:14:04;;;;;;;1.87;1.20;;;16.90;54.70;;;;;;4815207;28;20203;-86
2021/07/20 01:16:27;;;;;;;2.97;1.63;;;;;;;;;;4811896;28;20195;-86
2021/07/20 01:18:50;;;;;;;2.43;1.40;;;;;;;;;;4815276;28;20231;-86
2021/07/20 01:21:15;;;;;;;3.33;1.63;;;;;;;;;;4816375;28;20257;-87
2021/07/20 01:23:43;;;;;;;4.60;2.10;;;17.00;54.90;;;;;;4814428;28;20199;-88
2021/07/20 01:26:06;;;;;;;4.77;1.77;;;16.90;55.00;;;;;;4811226;28;20255;-84
2021/07/20 01:28:33;;;;;;;12.13;4.33;;;17.00;58.90;;;;;;4815884;28;20266;-84
2021/07/20 01:30:59;;;;;;;3.43;1.40;;;16.90;63.50;;;;;;4807548;28;20196;-86
2021/07/20 01:33:22;;;;;;;5.77;2.23;;;;;;;;;;4816096;28;20238;-88
2021/07/20 01:35:48;;;;;;;5.57;1.80;;;16.80;67.30;;;;;;4815133;28;20321;-86
2021/07/20 01:38:12;;;;;;;4.60;1.93;;;16.80;68.30;;;;;;4817867;28;20195;-85
2021/07/20 01:40:37;;;;;;;3.13;1.33;;;16.80;70.00;;;;;;4814978;28;20281;-89
2021/07/20 01:43:02;;;;;;;3.40;1.53;;;16.70;73.60;;;;;;4800080;28;20207;-87
2021/07/20 01:45:29;;;;;;;7.20;2.90;;;16.70;75.90;;;;;;4814989;28;20199;-86
2021/07/20 01:47:55;;;;;;;3.20;1.40;;;16.70;83.10;;;;;;4816195;28;20231;-88
2021/07/20 01:50:20;;;;;;;5.70;2.57;;;16.60;82.80;;;;;;4815107;28;20203;-87
2021/07/20 01:52:43;;;;;;;3.33;1.50;;;16.60;82.20;;;;;;4817422;28;20250;-88
2021/07/20 01:55:07;;;;;;;5.87;1.90;;;16.60;80.80;;;;;;4800324;28;20235;-83
2021/07/20 01:57:31;;;;;;;7.00;2.30;;;16.50;79.70;;;;;;4816444;28;20187;-86
2021/07/20 02:00:16;;;;;;;5.60;1.87;;;16.50;85.00;;;;;;4815298;28;20740;-88
2021/07/20 02:02:54;;;;;;;3.70;1.33;;;16.50;82.40;;;;;;4814008;28;20559;-87
2021/07/20 02:10:45;;;;;;;3.40;1.60;;;;;;;;;;4813862;28;20203;-81
2021/07/20 02:13:18;;;;;;;4.00;1.97;;;16.50;98.80;;;;;;4815807;28;20204;-84
2021/07/20 02:15:49;;;;;;;2.17;1.30;;;16.40;99.90;;;;;;4816305;28;20605;-85
2021/07/20 02:18:23;;;;;;;4.93;2.50;;;16.30;99.90;;;;;;4817897;28;20223;-79
2021/07/20 02:20:46;;;;;;;2.57;1.47;;;;;;;;;;4803445;28;20280;-88
2021/07/20 02:23:22;;;;;;;3.83;1.97;;;16.40;31.50;;;;;;4819481;28;20275;-86
2021/07/20 02:25:45;;;;;;;3.70;1.73;;;;;;;;;;4813506;28;20208;-86
2021/07/20 02:28:08;;;;;;;2.30;1.17;;;;;;;;;;4759204;28;20194;-86
2021/07/20 02:30:38;;;;;;;2.27;1.43;;;16.30;46.30;;;;;;4776303;28;20259;-86
2021/07/20 02:33:03;;;;;;;2.20;1.23;;;16.30;41.70;;;;;;4785881;28;20569;-88
2021/07/20 02:35:28;;;;;;;3.03;1.70;;;;;;;;;;4815365;28;20373;-79
2021/07/20 02:37:55;;;;;;;1.83;1.13;;;16.30;42.30;;;;;;4819119;28;20266;-89
2021/07/20 02:40:22;;;;;;;4.67;2.63;;;16.30;45.60;;;;;;4815057;28;20295;-80
2021/07/20 02:42:46;;;;;;;4.23;1.90;;;16.30;43.20;;;;;;4813549;28;20200;-85
2021/07/20 02:45:11;;;;;;;3.33;1.60;;;16.10;36.60;;;;;;4818069;28;20188;-89
2021/07/20 02:47:37;;;;;;;2.23;1.30;;;16.30;32.10;;;;;;4796355;28;20254;-74
2021/07/20 02:50:00;;;;;;;0.83;0.57;;;;;;;;;;4819411;28;20222;-74
2021/07/20 02:52:27;;;;;;;1.37;0.87;;;16.30;63.00;;;;;;4817128;28;20195;-79
2021/07/20 02:54:51;;;;;;;0.77;0.70;;;;;;;;;;4818040;28;20199;-74
2021/07/20 02:57:16;;;;;;;1.00;0.83;;;16.20;57.90;;;;;;4818165;28;20254;-74
2021/07/20 02:59:46;;;;;;;0.80;0.60;;;16.20;68.70;;;;;;4817690;28;20730;-73
2021/07/20 03:02:15;;;;;;;1.20;1.03;;;16.20;70.10;;;;;;4814620;28;20252;-77
2021/07/20 03:04:41;;;;;;;1.10;0.93;;;16.10;50.30;;;;;;4818151;28;20199;-76
2021/07/20 03:07:11;;;;;;;0.70;0.60;;;16.10;55.10;;;;;;4819882;28;20191;-74
2021/07/20 03:09:40;;;;;;;0.40;0.40;;;;;;;;;;4806638;28;20261;-74
2021/07/20 03:12:10;;;;;;;1.20;1.10;;;16.10;52.30;;;;;;4818000;28;20238;-73
2021/07/20 03:14:35;;;;;;;0.50;0.43;;;;;;;;;;4816039;28;20290;-74
2021/07/20 03:17:09;;;;;;;0.77;0.67;;;16.10;47.40;;;;;;4818161;28;20211;-72
2021/07/20 03:19:34;;;;;;;0.50;0.50;;;16.10;38.40;;;;;;4818112;28;20305;-73
2021/07/20 03:22:05;;;;;;;0.80;0.70;;;16.10;43.60;;;;;;4814712;28;20192;-73
2021/07/20 03:24:33;;;;;;;0.97;0.87;;;16.10;62.10;;;;;;4816449;28;20196;-74
2021/07/20 03:26:59;;;;;;;1.10;0.90;;;;;;;;;;4799486;28;20247;-75
2021/07/20 03:29:24;;;;;;;2.53;1.83;;;16.10;70.30;;;;;;4809580;28;20230;-74
2021/07/20 03:31:49;;;;;;;1.67;1.30;;;;;;;;;;4797442;28;20211;-74
2021/07/20 03:34:12;;;;;;;4.83;2.13;;;;;;;;;;4813626;28;20594;-76
2021/07/20 03:36:40;;;;;;;3.23;1.80;;;15.90;50.70;;;;;;4817451;28;20696;-75
2021/07/20 03:39:06;;;;;;;2.63;1.47;;;16.00;55.00;;;;;;4800269;28;20200;-76
2021/07/20 03:41:32;;;;;;;4.33;2.13;;;16.00;53.80;;;;;;4804518;28;20281;-75
2021/07/20 03:43:56;;;;;;;2.30;1.47;;;16.50;56.40;;;;;;4800699;28;20276;-81
2021/07/20 03:46:22;;;;;;;2.70;1.63;;;;;;;;;;4815964;28;20278;-74
2021/07/20 03:48:46;;;;;;;1.90;1.17;;;;;;;;;;4815865;28;20273;-76
2021/07/20 03:51:18;;;;;;;2.53;1.73;;;16.00;37.00;;;;;;4813329;28;20200;-74
2021/07/20 03:53:42;;;;;;;1.60;1.17;;;15.90;43.20;;;;;;4818546;28;20199;-75
2021/07/20 03:56:08;;;;;;;2.53;1.53;;;15.90;33.30;;;;;;4816251;28;20207;-74
2021/07/20 03:58:44;;;;;;;1.90;1.27;;;15.90;33.20;;;;;;4794126;28;20199;-74
2021/07/20 04:01:12;;;;;;;2.20;1.63;;;16.00;34.70;;;;;;4814326;28;20251;-74
2021/07/20 04:03:36;;;;;;;1.57;0.97;;;15.90;35.90;;;;;;4814499;28;20199;-74
2021/07/20 04:06:03;;;;;;;2.20;1.50;;;16.00;34.50;;;;;;4817983;28;20202;-74
2021/07/20 04:08:26;;;;;;;4.17;2.90;;;;;;;;;;4815916;28;20188;-74
2021/07/20 04:10:53;;;;;;;1.27;1.03;;;16.10;36.60;;;;;;4816673;28;20199;-74
2021/07/20 04:13:43;;;;;;;1.00;0.90;;;16.10;81.00;;;;;;4805387;28;20182;-75
2021/07/20 04:16:46;;;;;;;1.97;1.40;;;;;;;;;;4794450;28;20192;-74
2021/07/20 04:19:28;;;;;;;1.87;1.40;;;;;;;;;;4801917;28;20234;-74
2021/07/20 04:22:22;;;;;;;2.17;1.47;;;;;;;;;;4817540;28;20214;-75
2021/07/20 04:25:07;;;;;;;0.53;0.53;;;16.30;97.10;;;;;;4817182;28;20253;-75
2021/07/20 04:27:54;;;;;;;1.07;0.97;;;;;;;;;;4796484;28;20187;-76
2021/07/20 04:30:40;;;;;;;1.40;1.00;;;16.30;35.50;;;;;;4805569;28;20183;-76
2021/07/20 04:33:25;;;;;;;1.40;1.30;;;16.40;60.10;;;;;;4803240;28;20270;-85
2021/07/20 04:36:35;;;;;;;0.83;0.73;;;16.40;35.90;;;;;;4818486;28;20187;-83
2021/07/20 04:39:43;;;;;;;0.50;0.50;;;;;;;;;;4788807;28;20188;-86
2021/07/20 04:42:29;;;;;;;1.60;1.27;;;;;;;;;;4809788;28;20186;-84
2021/07/20 04:45:13;;;;;;;1.07;0.93;;;16.40;58.90;;;;;;4813999;28;20563;-78
2021/07/20 04:47:42;;;;;;;0.70;0.67;;;16.40;55.80;;;;;;4817849;28;20261;-85
2021/07/20 04:50:21;;;;;;;1.97;1.53;;;16.50;36.10;;;;;;4814859;28;20203;-83
2021/07/20 04:52:46;;;;;;;0.80;0.80;;;;;;;;;;4815866;28;20199;-86
2021/07/20 04:55:10;;;;;;;1.20;1.00;;;16.60;48.90;;;;;;4817235;28;20242;-84
2021/07/20 04:57:33;;;;;;;0.80;0.80;;;;;;;;;;4817181;28;20183;-78
2021/07/20 04:59:56;;;;;;;1.10;0.83;;;;;;;;;;4815652;28;20794;-80
2021/07/20 05:02:20;;;;;;;1.30;1.03;;;16.70;59.00;;;;;;4812396;28;20204;-84
2021/07/20 05:04:49;;;;;;;0.63;0.63;;;16.70;58.20;;;;;;4816510;28;20311;-83
2021/07/20 05:07:14;;;;;;;0.67;0.60;;;16.80;72.80;;;;;;4816731;28;20207;-75
2021/07/20 05:09:41;;;;;;;0.70;0.70;;;16.90;41.50;;;;;;4799451;28;20207;-73
2021/07/20 05:12:04;;;;;;;0.60;0.60;;;;;;;;;;4811501;28;20563;-74
2021/07/20 05:14:31;;;;;;;0.80;0.80;;;;;;;;;;4801759;28;20893;-73
2021/07/20 05:16:54;;;;;;;0.30;0.30;;;;;;;;;;4817939;28;20190;-74
2021/07/20 05:19:18;;;;;;;0.80;0.80;;;;;;;;;;4813600;28;20274;-74
2021/07/20 05:21:50;;;;;;;0.67;0.63;;;17.20;91.90;;;;;;4811448;28;20281;-74
2021/07/20 05:24:19;;;;;;;1.23;1.13;;;17.20;77.40;;;;;;4817477;28;20638;-75
2021/07/20 05:26:56;;;;;;;0.80;0.67;;;17.40;99.90;;;;;;4816778;28;20571;-74
2021/07/20 05:29:21;;;;;;;1.30;1.20;;;17.30;37.70;;;;;;4815772;28;20246;-76
2021/07/20 05:31:56;;;;;;;0.70;0.70;;;17.50;69.30;;;;;;4817738;28;20241;-74
2021/07/20 05:34:20;;;;;;;1.03;0.90;;;17.60;77.90;;;;;;4813994;28;20600;-75
2021/07/20 05:36:43;;;;;;;1.00;0.80;;;;;;;;;;4789087;28;20231;-73
2021/07/20 05:39:11;;;;;;;1.17;0.97;;;17.80;99.90;;;;;;4815025;28;20207;-74
2021/07/20 05:41:39;;;;;;;1.03;0.90;;;;;;;;;;4799142;28;20282;-80
2021/07/20 05:44:03;;;;;;;1.50;1.20;;;18.10;91.70;;;;;;4799927;28;20212;-76
2021/07/20 05:46:26;;;;;;;1.20;1.00;;;18.30;95.20;;;;;;4777288;28;21959;-85
2021/07/20 05:48:53;;;;;;;0.87;0.87;;;18.30;85.60;;;;;;4783061;28;20200;-84
2021/07/20 05:51:17;;;;;;;2.53;1.70;;;18.40;75.10;;;;;;4795253;28;20255;-80
2021/07/20 05:54:00;;;;;;;3.13;1.40;;;18.50;66.30;;;;;;4820076;28;20727;-83
2021/07/20 05:56:43;;;;;;;3.50;1.30;;;18.60;89.90;;;;;;4820167;28;20172;-85
2021/07/20 05:59:18;;;;;;;7.27;2.27;;;18.60;33.80;;;;;;4819113;28;20207;-86
2021/07/20 06:01:42;;;;;;;5.57;1.97;;;;;;;;;;4817541;28;20230;-84
2021/07/20 06:04:09;;;;;;;4.17;1.50;;;;;;;;;;4782974;28;20734;-86
2021/07/20 06:06:32;;;;;;;3.57;1.30;;;18.90;69.80;;;;;;4782620;28;20259;-86
2021/07/20 06:08:55;;;;;;;4.10;1.37;;;;;;;;;;4783313;28;20251;-86
2021/07/20 06:11:21;;;;;;;6.83;2.23;;;19.00;97.10;;;;;;4783689;28;20248;-87
2021/07/20 06:13:46;;;;;;;4.87;1.50;;;19.10;67.10;;;;;;4783637;28;20189;-81
2021/07/20 06:16:09;;;;;;;5.73;2.00;;;19.10;70.40;;;;;;4784010;28;20248;-87
2021/07/20 06:18:32;;;;;;;10.00;3.37;;;;;;;;;;4762499;29;20230;-84
2021/07/20 06:20:57;;;;;;;3.03;1.37;;;19.30;97.70;;;;;;4765325;29;20565;-86
2021/07/20 06:23:21;;;;;;;5.87;2.40;;;19.40;90.20;;;;;;4768510;28;20258;-86
2021/07/20 06:25:44;;;;;;;2.63;1.37;;;19.60;99.90;;;;;;4816602;28;20604;-83
2021/07/20 06:28:08;;;;;;;3.23;1.37;;;19.60;37.90;;;;;;4797752;28;20192;-87
2021/07/20 06:30:32;;;;;;;4.90;2.27;;;19.70;33.00;;;;;;4767610;28;20198;-83
2021/07/20 06:32:55;;;;;;;3.30;1.33;;;;;;;;;;4801405;28;20185;-85
2021/07/20 06:35:20;;;;;;;6.03;2.47;;;19.90;94.60;;;;;;4800771;28;20186;-83
2021/07/20 06:37:45;;;;;;;4.53;2.20;;;20.00;36.60;;;;;;4799262;28;20186;-78
2021/07/20 06:40:09;;;;;;;3.70;1.80;;;20.40;45.10;;;;;;4798629;28;20552;-81
2021/07/20 06:42:33;;;;;;;2.37;1.10;;;20.30;61.00;;;;;;4794656;28;20557;-81
2021/07/20 06:44:56;;;;;;;3.67;1.43;;;20.40;65.60;;;;;;4799616;28;20235;-78
2021/07/20 06:47:22;;;;;;;5.67;2.03;;;20.40;57.70;;;;;;4811976;28;20468;-82
2021/07/20 06:49:46;;;;;;;2.50;1.27;;;20.90;52.00;;;;;;4797121;28;20188;-77
2021/07/20 06:52:10;;;;;;;2.63;1.30;;;;;;;;;;4801035;28;20189;-76
2021/07/20 06:54:33;;;;;;;2.40;1.23;;;;;;;;;;4785730;28;20191;-83
2021/07/20 06:56:59;;;;;;;3.07;1.53;;;20.40;67.30;;;;;;4796229;28;20186;-82
2021/07/20 06:59:24;;;;;;;5.73;2.73;;;20.30;63.10;;;;;;4797963;28;20241;-76
2021/07/20 07:01:47;;;;;;;2.33;1.23;;;20.40;64.90;;;;;;4796951;28;20210;-74
2021/07/20 07:04:17;;;;;;;3.47;1.80;;;20.30;80.70;;;;;;4797070;28;20590;-75
2021/07/20 07:06:44;;;;;;;2.40;1.30;;;20.20;78.50;;;;;;4792107;28;20215;-75
2021/07/20 07:09:09;;;;;;;2.37;1.27;;;20.20;70.10;;;;;;4779993;28;20247;-74
2021/07/20 07:11:32;;;;;;;4.37;2.10;;;;;;;;;;4796978;28;20194;-85
2021/07/20 07:13:55;;;;;;;3.97;1.60;;;20.30;78.40;;;;;;4788632;28;20186;-74
2021/07/20 07:16:40;;;;;;;3.30;1.57;;;20.50;81.00;;;;;;4795320;28;20188;-75
2021/07/20 07:19:24;;;;;;;3.60;1.80;;;20.60;84.00;;;;;;4814936;28;20676;-76
2021/07/20 07:22:08;;;;;;;1.90;1.10;;;20.60;96.10;;;;;;4798800;28;20215;-74
2021/07/20 07:24:53;;;;;;;2.27;1.27;;;20.70;99.90;;;;;;4814039;28;20649;-78
2021/07/20 07:27:38;;;;;;;2.37;1.17;;;20.70;33.00;;;;;;4817045;28;20190;-74
2021/07/20 07:30:21;;;;;;;3.97;1.97;;;20.90;36.20;;;;;;4803674;28;20640;-74
2021/07/20 07:33:04;;;;;;;2.60;1.37;;;;;;;;;;4784681;28;20278;-76
2021/07/20 07:35:49;;;;;;;3.10;1.50;;;21.20;99.90;;;;;;4800622;28;20550;-74
2021/07/20 07:38:32;;;;;;;6.27;3.20;;;;;;;;;;4801774;28;20674;-76
2021/07/20 07:41:16;;;;;;;2.97;1.50;;;21.60;31.10;;;;;;4802139;28;20205;-75
2021/07/20 07:43:59;;;;;;;2.53;1.37;;;;;;;;;;4800485;28;20202;-75
2021/07/20 07:46:44;;;;;;;2.10;1.10;;;21.80;37.10;;;;;;4790442;28;20183;-78
2021/07/20 07:49:30;;;;;;;4.23;2.00;;;21.60;91.10;;;;;;4798569;28;20198;-88
2021/07/20 07:52:15;;;;;;;2.57;1.37;;;21.70;36.90;;;;;;4789227;28;20671;-76
2021/07/20 07:54:59;;;;;;;2.23;1.13;;;;;;;;;;4771054;28;20177;-74
2021/07/20 07:57:44;;;;;;;3.27;1.60;;;21.60;35.00;;;;;;4815958;28;20253;-75
2021/07/20 08:00:27;;;;;;;10.30;4.70;;;21.60;30.90;;;;;;4797734;28;20209;-75
2021/07/20 08:03:13;;;;;;;4.13;2.00;;;21.40;33.70;;;;;;4815651;28;20518;-76
2021/07/20 08:05:57;;;;;;;2.90;1.57;;;21.40;34.40;;;;;;4817152;28;20180;-75
2021/07/20 08:08:42;;;;;;;4.70;2.13;;;21.70;35.20;;;;;;4798879;28;20183;-75
2021/07/20 08:11:25;;;;;;;3.27;1.80;;;22.00;32.40;;;;;;4793854;28;20199;-76
2021/07/20 08:14:08;;;;;;;2.57;1.47;;;22.10;36.40;;;;;;4812833;28;20620;-76
2021/07/20 08:16:57;;;;;;;2.60;1.50;;;22.30;35.40;;;;;;4811831;28;20649;-79
2021/07/20 08:19:41;;;;;;;2.47;1.33;;;22.40;37.30;;;;;;4811307;28;20234;-91
2021/07/20 08:22:25;;;;;;;2.80;1.57;;;;;;;;;;4792252;28;20211;-76
2021/07/20 08:25:14;;;;;;;2.37;1.37;;;22.40;37.40;;;;;;4817518;28;20195;-80
2021/07/20 08:28:04;;;;;;;2.43;1.30;;;22.60;41.40;;;;;;4802769;28;20193;-77
2021/07/20 08:30:56;;;;;;;2.10;1.30;;;23.00;51.10;;;;;;4808725;28;20186;-78
2021/07/20 08:33:39;;;;;;;2.93;1.50;;;23.30;51.60;;;;;;4817779;28;20529;-77
2021/07/20 08:36:22;;;;;;;3.57;1.90;;;;;;;;;;4816525;28;20188;-76
2021/07/20 08:39:05;;;;;;;2.37;1.40;;;;;;;;;;4815190;28;20649;-75
2021/07/20 08:42:07;;;;;;;2.40;1.40;;;23.70;61.00;;;;;;4807859;28;20519;-78
2021/07/20 08:45:02;;;;;;;2.53;1.40;;;24.10;59.30;;;;;;4810494;28;20190;-75
2021/07/20 08:48:16;;;;;;;1.03;0.63;;;24.70;43.00;;;;;;4819646;28;20190;-78
2021/07/20 08:51:04;;;;;;;2.13;1.20;;;25.30;54.00;;;;;;4812511;28;20194;-77
2021/07/20 08:53:54;;;;;;;3.43;1.70;;;25.50;55.20;;;;;;4808440;28;20205;-78
2021/07/20 08:56:41;;;;;;;4.07;1.77;;;26.00;58.50;;;;;;4805037;28;20176;-79
2021/07/20 08:59:08;;;;;;;3.57;1.80;;;26.30;58.30;;;;;;4815573;28;20195;-79
2021/07/20 09:01:36;;;;;;;4.57;1.80;;;26.60;61.80;;;;;;4788505;28;20241;-82
2021/07/20 09:04:02;;;;;;;5.20;1.53;;;27.10;62.70;;;;;;4791568;28;20265;-84
2021/07/20 09:06:29;;;;;;;5.63;1.57;;;27.50;64.10;;;;;;4798373;28;20202;-83
2021/07/20 09:08:58;;;;;;;2.17;0.50;;;28.00;67.80;;;;;;4798005;28;20264;-85
2021/07/20 09:11:29;;;;;;;5.67;1.40;;;28.40;68.50;;;;;;4814964;28;20264;-89
2021/07/20 09:13:54;;;;;;;4.93;1.03;;;28.90;70.10;;;;;;4805486;28;20186;-81
2021/07/20 09:16:29;;;;;;;9.03;1.50;;;29.20;72.90;;;;;;4821955;28;20216;-91
2021/07/20 09:18:57;;;;;;;2.30;0.47;;;29.10;74.50;;;;;;4819650;28;20221;-88
2021/07/20 09:21:23;;;;;;;9.23;1.37;;;28.90;76.10;;;;;;4806992;28;20191;-93
2021/07/20 09:23:55;;;;;;;15.60;2.43;;;28.60;75.90;;;;;;4817864;28;20215;-89
2021/07/20 09:26:22;;;;;;;15.27;2.47;;;27.50;75.10;;;;;;4802152;28;20239;-87
2021/07/20 09:28:50;;;;;;;14.77;2.50;;;27.00;74.60;;;;;;4820721;28;20681;-84
2021/07/20 09:31:21;;;;;;;7.17;1.27;;;26.50;74.40;;;;;;4821750;28;20560;-80
2021/07/20 09:33:53;;;;;;;4.87;0.93;;;25.80;72.90;;;;;;4807804;28;20192;-87
2021/07/20 09:36:24;;;;;;;5.03;0.83;;;25.20;72.00;;;;;;4803155;28;20268;-92
2021/07/20 09:39:12;;;;;;;11.93;2.07;;;24.60;84.10;;;;;;4820064;28;20203;-89
2021/07/20 09:41:42;;;;;;;10.87;2.03;;;24.00;79.70;;;;;;4805967;28;20436;-87
2021/07/20 09:44:15;;;;;;;13.67;2.50;;;23.60;77.30;;;;;;4821819;28;20222;-80
2021/07/20 09:46:42;;;;;;;9.00;1.70;;;23.20;74.70;;;;;;4792560;28;20689;-76
2021/07/20 09:49:10;;;;;;;10.30;1.97;;;23.10;73.70;;;;;;4820639;28;20190;-87
2021/07/20 09:51:50;;;;;;;7.60;1.50;;;22.80;72.10;;;;;;4808380;28;20867;-82
2021/07/20 09:54:41;;;;;;;9.17;1.77;;;22.60;65.30;;;;;;4805513;28;20312;-77
2021/07/20 09:57:16;;;;;;;9.07;1.83;;;22.30;61.50;;;;;;4823028;28;20189;-87
2021/07/20 10:00:06;;;;;;;3.70;0.83;;;21.90;48.40;;;;;;4792766;28;20200;-89
2021/07/20 10:02:43;;;;;;;15.77;3.03;;;21.70;41.40;;;;;;4802257;28;20179;-84
2021/07/20 10:05:12;;;;;;;7.50;1.63;;;21.60;42.40;;;;;;4795608;28;20263;-79
2021/07/20 10:07:38;;;;;;;10.07;2.03;;;21.40;40.80;;;;;;4802017;28;20227;-76
2021/07/20 10:10:09;;;;;;;8.23;1.73;;;21.30;40.00;;;;;;4800439;28;20821;-75
2021/07/20 10:12:44;;;;;;;8.13;1.73;;;21.20;39.00;;;;;;4806819;28;20643;-75
2021/07/20 10:15:09;;;;;;;8.83;1.80;;;21.10;37.60;;;;;;4811723;28;20210;-75
2021/07/20 10:17:35;;;;;;;17.10;3.40;;;21.00;47.40;;;;;;4819176;28;20285;-76
2021/07/20 10:20:05;;;;;;;8.53;1.77;;;20.90;42.60;;;;;;4820343;28;20651;-78
2021/07/20 10:22:37;;;;;;;11.20;2.43;;;20.70;40.40;;;;;;4787904;28;20650;-77
2021/07/20 10:25:04;;;;;;;10.40;2.33;;;20.60;40.80;;;;;;4818912;28;20238;-79
2021/07/20 10:27:34;;;;;;;11.67;2.57;;;20.60;47.40;;;;;;4805063;28;20209;-77
2021/07/20 10:30:06;;;;;;;9.10;1.97;;;20.50;37.90;;;;;;4817800;28;20627;-76
2021/07/20 10:32:42;;;;;;;15.20;3.23;;;20.30;33.60;;;;;;4818914;28;20185;-78
2021/07/20 10:35:13;;;;;;;7.27;1.73;;;20.40;41.00;;;;;;4820034;28;20183;-79
2021/07/20 10:37:40;;;;;;;6.47;1.43;;;20.40;46.40;;;;;;4806316;28;20368;-79
2021/07/20 10:40:09;;;;;;;7.57;1.70;;;20.40;47.10;;;;;;4819755;28;20195;-78
2021/07/20 10:42:36;;;;;;;7.93;1.97;;;20.40;46.80;;;;;;4789124;28;20268;-76
2021/07/20 10:45:04;;;;;;;4.07;1.07;;;20.30;45.80;;;;;;4817906;28;20240;-80
2021/07/20 10:47:32;;;;;;;10.37;2.50;;;20.40;46.60;;;;;;4807568;28;20730;-77
2021/07/20 10:50:01;;;;;;;5.80;1.53;;;20.30;47.40;;;;;;4819204;28;20198;-77
2021/07/20 10:52:35;;;;;;;7.73;2.00;;;20.40;42.70;;;;;;4819261;28;20214;-80
2021/07/20 10:55:03;;;;;;;7.80;1.90;;;20.30;44.20;;;;;;4819203;28;20179;-80
2021/07/20 10:57:35;;;;;;;12.53;2.97;;;20.50;47.50;;;;;;4805691;28;20198;-76
2021/07/20 11:00:10;;;;;;;5.80;1.40;;;20.60;45.00;;;;;;4811886;28;20182;-83
2021/07/20 11:02:38;;;;;;;9.07;2.30;;;20.70;44.40;;;;;;4813243;28;20213;-86
2021/07/20 11:05:06;;;;;;;6.53;1.60;;;20.80;46.30;;;;;;4798399;28;20303;-84
2021/07/20 11:07:31;;;;;;;9.87;2.43;;;20.80;50.00;;;;;;4819676;28;20411;-84
2021/07/20 11:09:55;;;;;;;7.53;1.80;;;20.90;48.50;;;;;;4817350;28;20188;-82
2021/07/20 11:12:18;;;;;;;13.67;2.83;;;;;;;;;;4819168;28;20231;-84
2021/07/20 11:14:46;;;;;;;12.43;2.50;;;21.10;45.30;;;;;;4809501;28;20240;-85
2021/07/20 11:17:10;;;;;;;8.70;2.00;;;21.20;48.70;;;;;;4818814;28;20279;-84
2021/07/20 11:19:33;;;;;;;14.77;3.10;;;21.20;51.40;;;;;;4800378;28;20291;-85
2021/07/20 11:21:58;;;;;;;7.30;1.67;;;21.10;51.40;;;;;;4819199;28;20189;-83
2021/07/20 11:24:22;;;;;;;12.03;2.80;;;21.10;53.80;;;;;;4817448;28;20226;-85
2021/07/20 11:26:45;;;;;;;2.80;0.80;;;;;;;;;;4811234;28;20196;-88
2021/07/20 11:29:07;;;;;;;2.50;0.70;;;;;;;;;;4817206;28;20201;-89
2021/07/20 11:31:34;;;;;;;5.10;1.47;;;21.20;53.60;;;;;;4819815;28;20237;-83
2021/07/20 11:34:01;;;;;;;2.40;0.73;;;21.40;55.80;;;;;;4820009;28;20247;-93
2021/07/20 11:36:27;;;;;;;11.10;2.67;;;21.90;58.20;;;;;;4812580;28;20339;-86
2021/07/20 11:38:56;;;;;;;1.50;0.50;;;22.60;61.30;;;;;;4820318;28;20193;-84
2021/07/20 11:41:33;;;;;;;13.80;3.30;;;23.20;66.50;;;;;;4799974;28;20201;-77
2021/07/20 11:44:03;;;;;;;6.40;1.63;;;24.10;70.30;;;;;;4809238;28;20280;-77
2021/07/20 11:46:35;;;;;;;9.83;2.33;;;24.60;75.10;;;;;;4808268;28;20235;-79
2021/07/20 11:49:03;;;;;;;5.80;1.47;;;24.60;79.50;;;;;;4817404;28;20237;-77
2021/07/20 11:51:31;;;;;;;10.97;2.67;;;24.20;78.80;;;;;;4804080;28;20187;-76
2021/07/20 11:54:05;;;;;;;4.73;1.27;;;23.90;78.00;;;;;;4814647;28;20211;-76
2021/07/20 11:56:30;;;;;;;5.97;1.77;;;23.60;79.30;;;;;;4806164;28;20231;-76
2021/07/20 11:59:34;;;;;;;2.80;0.93;;;23.40;79.20;;;;;;4817436;28;20184;-76
2021/07/20 12:02:49;;;;;;;6.53;1.80;;;23.20;78.20;;;;;;4763357;28;20203;-77
2021/07/20 12:05:31;;;;;;;6.70;1.90;;;22.60;78.40;;;;;;4814468;28;20597;-77
2021/07/20 12:07:57;;;;;;;6.53;1.87;;;22.40;77.40;;;;;;4817614;28;20529;-75
2021/07/20 12:10:39;;;;;;;10.57;2.77;;;22.30;76.70;;;;;;4784794;28;20197;-75
2021/07/20 12:13:03;;;;;;;5.27;1.43;;;;;;;;;;4791644;28;20191;-75
2021/07/20 12:15:28;;;;;;;9.07;2.43;;;22.40;76.00;;;;;;4786832;28;20207;-76
2021/07/20 12:17:54;;;;;;;4.07;1.10;;;22.50;75.00;;;;;;4818668;28;20207;-83
2021/07/20 12:20:20;;;;;;;4.20;1.23;;;22.60;74.70;;;;;;4816385;28;20176;-73
2021/07/20 12:22:46;;;;;;;3.70;1.03;;;22.50;74.00;;;;;;4818577;28;20189;-75
2021/07/20 12:25:10;;;;;;;3.10;1.00;;;22.50;74.10;;;;;;4817590;28;20235;-74
2021/07/20 12:27:36;;;;;;;3.03;1.00;;;22.50;74.40;;;;;;4818143;28;20191;-75
2021/07/20 12:29:59;;;;;;;3.70;1.10;;;;;;;;;;4816865;28;20196;-74
2021/07/20 12:32:22;;;;;;;4.93;1.47;;;;;;;;;;4818374;28;20246;-75
2021/07/20 12:34:49;;;;;;;5.57;1.60;;;22.40;72.10;;;;;;4818397;28;20191;-77
2021/07/20 12:37:13;;;;;;;2.60;0.90;;;;;;;;;;4800654;28;20644;-75
2021/07/20 12:39:40;;;;;;;3.43;1.13;;;22.40;73.20;;;;;;4817994;28;20640;-76
2021/07/20 12:42:03;;;;;;;2.73;0.87;;;;;;;;;;4818188;28;20250;-74
2021/07/20 12:44:31;;;;;;;5.07;1.43;;;22.40;73.40;;;;;;4818694;28;20222;-74
2021/07/20 12:47:05;;;;;;;2.83;0.90;;;22.30;73.20;;;;;;4818157;28;20183;-74
2021/07/20 12:49:28;;;;;;;5.73;1.67;;;;;;;;;;4818038;28;20697;-75
2021/07/20 12:51:52;;;;;;;3.40;1.10;;;22.30;73.90;;;;;;4818100;28;20245;-75
2021/07/20 12:54:15;;;;;;;1.77;0.60;;;;;;;;;;4818914;28;20707;-75
2021/07/20 12:56:38;;;;;;;4.83;1.30;;;;;;;;;;4818704;28;20183;-75
2021/07/20 12:59:02;;;;;;;2.77;0.80;;;22.10;73.90;;;;;;4817682;28;20184;-74
2021/07/20 13:01:27;;;;;;;9.07;2.43;;;22.10;72.80;;;;;;4798315;28;20196;-75
2021/07/20 13:03:50;;;;;;;2.93;0.80;;;22.10;72.80;;;;;;4801651;28;20191;-79
2021/07/20 13:06:15;;;;;;;3.33;1.00;;;22.00;73.80;;;;;;4782041;28;20283;-74
2021/07/20 13:08:39;;;;;;;11.13;2.97;;;22.10;73.60;;;;;;4798394;28;20220;-74
2021/07/20 13:11:02;;;;;;;2.97;0.87;;;;;;;;;;4782363;28;20200;-76
2021/07/20 13:13:24;;;;;;;5.20;1.47;;;;;;;;;;4781807;28;20259;-76
2021/07/20 13:15:48;;;;;;;2.77;0.90;;;22.00;73.60;;;;;;4799891;28;20717;-75
2021/07/20 13:18:13;;;;;;;3.50;1.03;;;21.90;73.60;;;;;;4799602;28;20769;-76
2021/07/20 13:20:36;;;;;;;4.33;1.23;;;;;;;;;;4797782;28;20759;-75
2021/07/20 13:22:59;;;;;;;6.70;1.83;;;21.90;75.40;;;;;;4798494;28;20246;-74
2021/07/20 13:25:22;;;;;;;6.60;1.83;;;21.80;74.90;;;;;;4798845;28;20267;-75
2021/07/20 13:27:48;;;;;;;6.50;1.80;;;21.70;74.50;;;;;;4798957;28;20253;-75
2021/07/20 13:30:14;;;;;;;3.97;1.27;;;21.60;74.70;;;;;;4797107;28;20645;-75
2021/07/20 13:32:37;;;;;;;4.50;1.37;;;21.60;73.50;;;;;;4799092;28;20647;-74
2021/07/20 13:35:01;;;;;;;3.80;1.20;;;21.60;74.00;;;;;;4798310;28;20188;-75